Time;durP1;ratioP1;P1;durP2;ratioP2;P2;SDS_P1;SDS_P2;PMS_P1;PMS_P2;Temp;Humidity;BMP_temperature;BMP_pressure;BME280_temperature;BME280_humidity;BME280_pressure;Samples;Min_cycle;Max_cycle;Signal;HPM_P1;HPM_P2
2022/11/26 00:02:24;;;;;;;0.88;0.40;;;22.90;42.00;;;;;;5073887;28;20203;-63
2022/11/26 00:04:56;;;;;;;0.70;0.35;;;22.90;42.20;;;;;;5074210;28;20244;-62
2022/11/26 00:07:31;;;;;;;1.27;0.50;;;23.00;42.00;;;;;;5074140;28;20199;-60
2022/11/26 00:10:03;;;;;;;1.02;0.40;;;23.00;42.00;;;;;;5073535;28;20221;-57
2022/11/26 00:12:36;;;;;;;1.17;0.30;;;23.00;42.00;;;;;;5073376;28;20222;-60
2022/11/26 00:15:17;;;;;;;0.45;0.25;;;23.10;42.00;;;;;;5073627;28;20554;-61
2022/11/26 00:17:48;;;;;;;1.08;0.47;;;23.10;42.00;;;;;;5073440;28;20218;-59
2022/11/26 00:20:25;;;;;;;1.25;0.30;;;23.10;42.00;;;;;;5073681;28;20650;-60
2022/11/26 00:23:00;;;;;;;0.80;0.40;;;23.10;41.90;;;;;;5072963;28;20202;-55
2022/11/26 00:25:34;;;;;;;0.77;0.40;;;23.20;41.80;;;;;;5072942;28;20202;-60
2022/11/26 00:28:04;;;;;;;0.60;0.40;;;23.20;41.80;;;;;;5073355;28;20206;-61
2022/11/26 00:30:35;;;;;;;1.65;0.55;;;23.30;41.70;;;;;;5073011;28;20571;-55
2022/11/26 00:33:06;;;;;;;0.70;0.40;;;23.30;41.70;;;;;;5073181;28;20234;-60
2022/11/26 00:35:37;;;;;;;0.82;0.50;;;23.30;41.70;;;;;;5073338;28;20556;-61
2022/11/26 00:38:14;;;;;;;1.25;0.45;;;23.40;41.80;;;;;;5073687;28;20194;-58
2022/11/26 00:40:45;;;;;;;1.13;0.40;;;23.40;41.80;;;;;;5073132;28;20289;-60
2022/11/26 00:43:17;;;;;;;0.60;0.40;;;23.40;41.90;;;;;;5072895;28;20314;-63
2022/11/26 00:45:49;;;;;;;0.88;0.43;;;23.50;41.90;;;;;;5073003;28;20190;-61
2022/11/26 00:48:20;;;;;;;0.68;0.47;;;23.50;41.80;;;;;;5073148;28;20198;-56
2022/11/26 00:50:52;;;;;;;1.08;0.50;;;23.50;41.80;;;;;;5073213;28;20226;-59
2022/11/26 00:53:27;;;;;;;1.25;0.52;;;23.60;41.90;;;;;;5072727;28;20679;-57
2022/11/26 00:55:58;;;;;;;1.25;0.50;;;23.60;41.90;;;;;;5072484;28;20190;-62
2022/11/26 00:58:31;;;;;;;0.77;0.40;;;23.60;41.90;;;;;;5072701;28;20256;-57
2022/11/26 01:01:02;;;;;;;1.20;0.80;;;23.70;41.80;;;;;;5072553;28;20199;-62
2022/11/26 01:03:32;;;;;;;2.33;0.65;;;23.70;41.70;;;;;;5072007;28;20551;-62
2022/11/26 01:06:04;;;;;;;1.10;0.43;;;23.70;41.60;;;;;;5071910;28;20191;-61
2022/11/26 01:08:37;;;;;;;1.13;0.50;;;23.80;41.60;;;;;;5072320;28;20199;-56
2022/11/26 01:11:08;;;;;;;2.30;0.50;;;23.80;41.50;;;;;;5072670;28;20194;-58
2022/11/26 01:13:40;;;;;;;2.83;0.98;;;23.90;41.50;;;;;;5072347;28;20222;-63
2022/11/26 01:16:21;;;;;;;2.63;0.80;;;23.90;41.50;;;;;;5067607;28;20640;-62
2022/11/26 01:18:54;;;;;;;0.82;0.50;;;23.90;41.50;;;;;;5063836;28;20202;-62
2022/11/26 01:21:27;;;;;;;1.33;0.50;;;24.00;41.60;;;;;;5072371;28;20195;-62
2022/11/26 01:23:59;;;;;;;1.48;0.52;;;24.00;41.60;;;;;;5071950;28;20214;-62
2022/11/26 01:26:35;;;;;;;0.77;0.45;;;24.00;42.30;;;;;;5071785;28;20199;-57
2022/11/26 01:29:05;;;;;;;1.45;0.47;;;24.10;41.70;;;;;;5072437;28;20195;-63
2022/11/26 01:31:36;;;;;;;2.22;0.50;;;24.10;41.70;;;;;;5071975;28;20205;-59
2022/11/26 01:34:07;;;;;;;1.25;0.50;;;24.20;41.70;;;;;;5071956;28;20219;-61
2022/11/26 01:36:39;;;;;;;2.08;0.55;;;24.20;41.70;;;;;;5072700;28;20260;-63
2022/11/26 01:39:23;;;;;;;1.63;0.50;;;24.20;41.70;;;;;;5072004;28;20198;-64
2022/11/26 01:41:58;;;;;;;1.90;0.45;;;24.20;41.50;;;;;;5071704;28;20195;-62
2022/11/26 01:44:30;;;;;;;1.40;0.70;;;24.30;41.50;;;;;;5071355;28;20214;-62
2022/11/26 01:47:02;;;;;;;2.15;0.95;;;24.30;41.40;;;;;;5071571;28;20332;-61
2022/11/26 01:49:35;;;;;;;1.48;0.60;;;24.30;41.30;;;;;;5071765;28;20213;-63
2022/11/26 01:52:09;;;;;;;1.30;0.50;;;24.30;41.20;;;;;;5070944;28;20219;-60
2022/11/26 01:54:44;;;;;;;0.80;0.43;;;24.40;41.30;;;;;;5071353;28;20222;-64
2022/11/26 01:57:18;;;;;;;1.13;0.43;;;24.40;41.40;;;;;;5071502;28;20599;-60
2022/11/26 01:59:53;;;;;;;2.13;0.60;;;24.50;41.40;;;;;;5071047;28;20222;-64
2022/11/26 02:02:26;;;;;;;2.65;0.70;;;24.50;41.90;;;;;;5071300;28;20679;-63
2022/11/26 02:05:08;;;;;;;1.38;0.65;;;24.50;41.30;;;;;;5070028;28;20685;-63
2022/11/26 02:07:40;;;;;;;1.00;0.43;;;24.50;41.50;;;;;;5061453;28;20217;-64
2022/11/26 02:10:14;;;;;;;0.88;0.55;;;24.60;41.50;;;;;;5072087;28;20289;-63
2022/11/26 02:12:48;;;;;;;1.10;0.60;;;24.60;41.50;;;;;;5071322;28;20309;-63
2022/11/26 02:15:24;;;;;;;1.00;0.50;;;24.60;41.60;;;;;;5071339;28;20281;-63
2022/11/26 02:17:59;;;;;;;1.15;0.70;;;24.70;42.30;;;;;;5071731;28;20737;-63
2022/11/26 02:20:42;;;;;;;1.88;0.70;;;24.70;41.50;;;;;;5071565;28;20237;-63
2022/11/26 02:23:52;;;;;;;2.28;0.70;;;24.80;41.40;;;;;;5071073;28;20230;-63
2022/11/26 02:27:02;;;;;;;2.17;0.60;;;24.70;41.20;;;;;;5070933;28;20237;-64
2022/11/26 02:29:55;;;;;;;1.98;0.73;;;24.80;41.20;;;;;;5071277;28;20241;-64
2022/11/26 02:32:31;;;;;;;2.67;0.80;;;24.90;41.70;;;;;;5071685;28;20226;-63
2022/11/26 02:35:08;;;;;;;1.05;0.52;;;24.90;41.20;;;;;;5071614;28;20214;-64
2022/11/26 02:37:42;;;;;;;1.40;0.70;;;24.90;41.10;;;;;;5071457;28;20194;-63
2022/11/26 02:40:14;;;;;;;2.85;0.85;;;24.90;41.20;;;;;;5071385;28;20199;-64
2022/11/26 02:42:47;;;;;;;1.27;0.60;;;25.00;41.30;;;;;;5070800;28;20201;-60
2022/11/26 02:45:25;;;;;;;1.40;0.60;;;25.00;41.80;;;;;;5071066;28;20221;-58
2022/11/26 02:47:58;;;;;;;0.55;0.55;;;25.10;41.30;;;;;;5070796;28;20191;-59
2022/11/26 02:50:32;;;;;;;1.17;0.68;;;25.10;41.20;;;;;;5070482;28;20217;-64
2022/11/26 02:53:04;;;;;;;1.17;0.57;;;25.10;41.20;;;;;;5070426;28;20222;-64
2022/11/26 02:55:39;;;;;;;1.23;0.50;;;25.10;41.00;;;;;;5070848;28;20203;-61
2022/11/26 02:58:10;;;;;;;1.40;0.80;;;25.20;40.90;;;;;;5070934;28;20201;-62
2022/11/26 03:00:44;;;;;;;1.25;0.65;;;25.20;40.80;;;;;;5071208;28;20202;-63
2022/11/26 03:03:22;;;;;;;1.23;0.52;;;25.30;40.70;;;;;;5070751;28;20645;-64
2022/11/26 03:05:56;;;;;;;2.08;0.82;;;25.30;40.70;;;;;;5070231;28;20198;-60
2022/11/26 03:08:28;;;;;;;1.63;0.77;;;25.30;40.50;;;;;;5070476;28;20201;-59
2022/11/26 03:10:58;;;;;;;1.88;0.52;;;25.40;40.60;;;;;;5070832;28;20202;-60
2022/11/26 03:13:29;;;;;;;1.77;0.80;;;25.40;40.60;;;;;;5073495;28;20227;-62
2022/11/26 03:16:02;;;;;;;1.60;0.70;;;25.40;40.70;;;;;;5074372;28;20199;-58
2022/11/26 03:18:32;;;;;;;1.30;0.50;;;25.50;40.70;;;;;;5075390;28;20206;-63
2022/11/26 03:21:03;;;;;;;1.13;0.60;;;25.50;40.70;;;;;;5074661;28;20202;-64
2022/11/26 03:23:34;;;;;;;1.05;0.40;;;25.60;40.80;;;;;;5074089;28;20570;-61
2022/11/26 03:26:05;;;;;;;1.30;0.52;;;25.60;40.80;;;;;;5074101;28;20817;-61
2022/11/26 03:28:36;;;;;;;1.35;0.70;;;25.60;40.80;;;;;;5073866;28;20203;-62
2022/11/26 03:31:08;;;;;;;1.40;0.55;;;25.70;40.80;;;;;;5074163;28;20207;-62
2022/11/26 03:33:39;;;;;;;1.65;0.60;;;25.70;40.80;;;;;;5074129;28;20234;-59
2022/11/26 03:36:10;;;;;;;1.42;0.70;;;25.80;40.80;;;;;;5074108;28;20199;-62
2022/11/26 03:38:41;;;;;;;2.38;0.85;;;25.80;40.60;;;;;;5073898;28;20195;-60
2022/11/26 03:41:12;;;;;;;1.40;0.70;;;25.80;40.50;;;;;;5073581;28;20191;-60
2022/11/26 03:43:43;;;;;;;1.13;0.55;;;25.90;40.50;;;;;;5073445;28;20219;-54
2022/11/26 03:46:16;;;;;;;1.20;0.60;;;25.90;40.40;;;;;;5073385;28;20545;-61
2022/11/26 03:48:50;;;;;;;1.52;0.55;;;25.90;40.40;;;;;;5073903;28;20685;-62
2022/11/26 03:51:20;;;;;;;0.85;0.60;;;25.90;40.40;;;;;;5073908;28;20197;-61
2022/11/26 03:53:51;;;;;;;1.55;0.70;;;25.90;40.40;;;;;;5073591;28;20237;-64
2022/11/26 03:56:22;;;;;;;1.58;0.60;;;26.00;40.40;;;;;;5073575;28;20195;-59
2022/11/26 03:58:53;;;;;;;1.75;0.43;;;26.00;40.10;;;;;;5073566;28;20560;-58
2022/11/26 04:01:25;;;;;;;1.73;0.70;;;26.00;40.10;;;;;;5073507;28;20198;-63
2022/11/26 04:03:56;;;;;;;1.25;0.63;;;26.00;39.80;;;;;;5073415;28;20272;-60
2022/11/26 04:06:27;;;;;;;1.98;0.70;;;26.00;39.70;;;;;;5073971;28;20289;-56
2022/11/26 04:08:58;;;;;;;2.22;0.60;;;26.00;40.10;;;;;;5073937;28;20370;-59
2022/11/26 04:11:28;;;;;;;1.67;0.70;;;26.00;40.20;;;;;;5073823;28;20202;-57
2022/11/26 04:13:59;;;;;;;1.85;0.70;;;25.90;40.20;;;;;;5073155;28;20333;-52
2022/11/26 04:16:32;;;;;;;1.88;0.60;;;25.90;40.20;;;;;;5072984;28;20200;-62
2022/11/26 04:19:03;;;;;;;0.73;0.47;;;26.00;40.20;;;;;;5073664;28;20332;-58
2022/11/26 04:21:34;;;;;;;2.25;0.70;;;26.00;40.30;;;;;;5073190;28;20206;-61
2022/11/26 04:24:04;;;;;;;1.88;0.63;;;26.00;40.20;;;;;;5072362;28;20222;-60
2022/11/26 04:26:35;;;;;;;1.27;0.65;;;26.00;40.10;;;;;;5073067;28;20191;-62
2022/11/26 04:29:06;;;;;;;2.05;0.60;;;26.00;40.20;;;;;;5072916;28;20201;-60
2022/11/26 04:31:39;;;;;;;1.88;0.77;;;26.00;40.20;;;;;;5072989;28;20194;-58
2022/11/26 04:34:09;;;;;;;1.70;0.70;;;26.00;40.30;;;;;;5073447;28;20226;-60
2022/11/26 04:36:40;;;;;;;1.05;0.57;;;26.00;40.10;;;;;;5073105;28;20210;-60
2022/11/26 04:39:11;;;;;;;1.75;0.73;;;26.00;40.20;;;;;;5072562;28;20205;-57
2022/11/26 04:41:42;;;;;;;1.88;0.68;;;26.00;40.10;;;;;;5072025;28;20195;-58
2022/11/26 04:44:13;;;;;;;1.70;0.75;;;26.00;40.10;;;;;;5072224;28;20223;-60
2022/11/26 04:46:45;;;;;;;1.95;0.70;;;26.00;40.10;;;;;;5072512;28;20194;-54
2022/11/26 04:49:16;;;;;;;1.38;0.60;;;26.00;40.20;;;;;;5072759;28;20313;-63
2022/11/26 04:51:47;;;;;;;1.80;0.75;;;26.00;40.20;;;;;;5073028;28;20686;-63
2022/11/26 04:54:20;;;;;;;1.65;0.60;;;26.00;40.20;;;;;;5073169;28;20245;-64
2022/11/26 04:56:51;;;;;;;1.63;0.50;;;26.00;40.20;;;;;;5072496;28;20224;-56
2022/11/26 04:59:22;;;;;;;1.40;0.60;;;26.00;40.20;;;;;;5073014;28;20741;-58
2022/11/26 05:01:54;;;;;;;1.20;0.60;;;26.00;40.20;;;;;;5073058;28;20199;-59
2022/11/26 05:04:25;;;;;;;2.35;0.60;;;26.10;40.20;;;;;;5072951;28;20304;-58
2022/11/26 05:06:56;;;;;;;1.95;0.60;;;26.00;40.30;;;;;;5072862;28;20195;-63
2022/11/26 05:09:27;;;;;;;1.52;0.57;;;26.00;40.30;;;;;;5073349;28;20204;-59
2022/11/26 05:11:58;;;;;;;1.38;0.57;;;26.00;40.30;;;;;;5073510;28;20195;-60
2022/11/26 05:14:28;;;;;;;1.88;0.60;;;26.00;40.30;;;;;;5072712;28;20237;-53
2022/11/26 05:17:01;;;;;;;1.38;0.60;;;26.00;40.20;;;;;;5073324;28;20206;-54
2022/11/26 05:19:32;;;;;;;2.35;0.90;;;26.10;40.20;;;;;;5073523;28;20198;-58
2022/11/26 05:22:02;;;;;;;1.20;0.50;;;26.10;40.10;;;;;;5072977;28;20198;-54
2022/11/26 05:24:33;;;;;;;1.60;0.60;;;26.10;39.90;;;;;;5072819;28;20222;-58
2022/11/26 05:27:04;;;;;;;1.40;0.70;;;26.10;40.20;;;;;;5072922;28;20229;-59
2022/11/26 05:29:38;;;;;;;1.60;0.60;;;26.10;40.10;;;;;;5072472;28;20202;-63
2022/11/26 05:32:11;;;;;;;0.98;0.50;;;26.10;40.00;;;;;;5072244;28;20290;-54
2022/11/26 05:34:42;;;;;;;2.50;0.88;;;26.10;40.20;;;;;;5071643;28;20226;-58
2022/11/26 05:37:13;;;;;;;1.98;0.63;;;26.10;40.10;;;;;;5072347;28;20654;-62
2022/11/26 05:39:44;;;;;;;2.35;0.75;;;26.10;39.90;;;;;;5072299;28;20469;-58
2022/11/26 05:42:17;;;;;;;1.58;0.50;;;26.10;39.90;;;;;;5071833;28;20230;-63
2022/11/26 05:44:52;;;;;;;2.47;0.73;;;26.10;39.90;;;;;;5071041;28;20210;-57
2022/11/26 05:47:24;;;;;;;2.65;0.82;;;26.10;40.50;;;;;;5071373;28;20565;-58
2022/11/26 05:49:55;;;;;;;0.82;0.50;;;26.10;40.00;;;;;;5071335;28;20222;-52
2022/11/26 05:52:26;;;;;;;1.40;0.63;;;26.10;39.90;;;;;;5071833;28;20195;-59
2022/11/26 05:54:57;;;;;;;2.10;0.90;;;26.10;39.70;;;;;;5071587;28;20230;-57
2022/11/26 05:57:27;;;;;;;2.00;0.90;;;26.10;39.60;;;;;;5071179;28;20276;-55
2022/11/26 05:59:58;;;;;;;2.13;0.80;;;26.10;39.60;;;;;;5071532;28;20205;-58
2022/11/26 06:02:30;;;;;;;0.75;0.50;;;26.00;39.50;;;;;;5071581;28;20190;-58
2022/11/26 06:05:01;;;;;;;2.55;0.65;;;26.10;39.60;;;;;;5071644;28;20218;-51
2022/11/26 06:07:32;;;;;;;2.00;0.60;;;26.10;39.50;;;;;;5071698;28;20201;-57
2022/11/26 06:10:03;;;;;;;1.27;0.60;;;26.00;39.60;;;;;;5071541;28;20210;-59
2022/11/26 06:12:33;;;;;;;1.17;0.65;;;26.00;39.50;;;;;;5071641;28;20198;-61
2022/11/26 06:15:04;;;;;;;2.58;0.70;;;26.10;39.50;;;;;;5071307;28;20227;-62
2022/11/26 06:17:37;;;;;;;1.23;0.60;;;26.10;39.50;;;;;;5071834;28;20206;-56
2022/11/26 06:20:08;;;;;;;2.40;0.63;;;26.10;39.40;;;;;;5071799;28;20205;-57
2022/11/26 06:22:43;;;;;;;1.77;0.50;;;26.10;39.40;;;;;;5071734;28;20199;-60
2022/11/26 06:25:16;;;;;;;4.45;0.80;;;26.10;39.40;;;;;;5071015;28;20657;-58
2022/11/26 06:27:50;;;;;;;1.48;0.40;;;26.10;39.50;;;;;;5071245;28;20690;-62
2022/11/26 06:30:21;;;;;;;1.98;0.70;;;26.10;39.30;;;;;;5071473;28;20665;-60
2022/11/26 06:32:54;;;;;;;2.13;0.65;;;26.10;39.30;;;;;;5071096;28;20210;-57
2022/11/26 06:35:25;;;;;;;1.73;0.70;;;26.10;39.30;;;;;;5071149;28;20226;-56
2022/11/26 06:37:55;;;;;;;1.23;0.50;;;26.00;39.20;;;;;;5071158;28;20678;-62
2022/11/26 06:40:27;;;;;;;1.73;0.60;;;26.00;39.20;;;;;;5071353;28;20202;-62
2022/11/26 06:42:57;;;;;;;2.65;0.80;;;26.00;39.20;;;;;;5070746;28;20766;-58
2022/11/26 06:45:29;;;;;;;1.23;0.68;;;26.00;39.40;;;;;;5071408;28;20198;-60
2022/11/26 06:48:01;;;;;;;1.48;0.60;;;26.00;39.40;;;;;;5075100;28;20191;-61
2022/11/26 06:50:33;;;;;;;0.75;0.40;;;25.90;39.50;;;;;;5074757;28;20187;-60
2022/11/26 06:53:03;;;;;;;2.80;0.75;;;25.90;39.60;;;;;;5075129;28;20214;-59
2022/11/26 06:55:34;;;;;;;2.05;0.63;;;25.90;39.70;;;;;;5075275;28;20710;-60
2022/11/26 06:58:05;;;;;;;2.72;0.70;;;25.90;39.70;;;;;;5075003;28;20195;-61
2022/11/26 07:00:35;;;;;;;2.67;0.73;;;25.90;39.70;;;;;;5075037;28;20665;-61
2022/11/26 07:03:08;;;;;;;4.50;1.20;;;25.90;39.80;;;;;;5074839;28;20210;-59
2022/11/26 07:05:39;;;;;;;1.73;1.00;;;25.90;39.80;;;;;;5075077;28;20198;-60
2022/11/26 07:08:10;;;;;;;3.65;1.67;;;25.90;39.80;;;;;;5075011;28;20203;-63
2022/11/26 07:10:40;;;;;;;3.78;1.83;;;25.80;39.70;;;;;;5074922;28;20199;-57
2022/11/26 07:13:11;;;;;;;12.80;6.90;;;25.90;39.70;;;;;;5074855;28;20215;-57
2022/11/26 07:15:42;;;;;;;3.40;1.40;;;25.80;39.80;;;;;;5075374;28;20207;-65
2022/11/26 07:18:16;;;;;;;3.35;1.17;;;25.80;39.90;;;;;;5074769;28;20823;-60
2022/11/26 07:20:49;;;;;;;2.30;1.15;;;25.70;39.80;;;;;;5073759;28;20196;-61
2022/11/26 07:23:21;;;;;;;5.10;2.72;;;25.70;39.90;;;;;;5074582;28;20210;-63
2022/11/26 07:25:51;;;;;;;4.75;2.10;;;25.70;40.00;;;;;;5074662;28;20199;-55
2022/11/26 07:28:22;;;;;;;2.78;1.55;;;25.70;40.10;;;;;;5074320;28;20202;-60
2022/11/26 07:30:53;;;;;;;3.65;1.85;;;25.70;40.20;;;;;;5074394;28;20198;-60
2022/11/26 07:33:26;;;;;;;4.63;2.28;;;25.70;40.20;;;;;;5074539;28;20661;-60
2022/11/26 07:35:59;;;;;;;4.25;1.90;;;25.60;40.20;;;;;;5074352;28;20650;-61
2022/11/26 07:38:30;;;;;;;6.07;1.92;;;25.60;40.30;;;;;;5074798;28;20195;-60
2022/11/26 07:41:06;;;;;;;5.63;2.25;;;25.60;41.00;;;;;;5074361;28;20624;-61
2022/11/26 07:43:37;;;;;;;5.32;2.53;;;25.60;40.50;;;;;;5060433;28;20227;-62
2022/11/26 07:46:10;;;;;;;2.85;1.67;;;25.50;40.50;;;;;;5054335;28;20566;-60
2022/11/26 07:48:43;;;;;;;6.28;2.30;;;25.60;40.60;;;;;;5062664;28;20194;-59
2022/11/26 07:51:19;;;;;;;4.00;1.60;;;25.50;40.60;;;;;;5074367;28;20195;-59
2022/11/26 07:53:51;;;;;;;4.80;1.83;;;25.40;40.60;;;;;;5073817;28;20583;-58
2022/11/26 07:56:22;;;;;;;4.03;1.80;;;25.40;40.70;;;;;;5073712;28;20651;-60
2022/11/26 07:58:52;;;;;;;3.10;1.63;;;25.40;40.70;;;;;;5072347;28;20678;-51
2022/11/26 08:01:25;;;;;;;6.65;1.88;;;25.40;40.80;;;;;;5073019;28;20673;-57
2022/11/26 08:03:58;;;;;;;4.68;2.03;;;25.30;40.80;;;;;;5073125;28;20219;-55
2022/11/26 08:06:31;;;;;;;4.88;1.98;;;25.30;40.80;;;;;;5073873;28;20554;-54
2022/11/26 08:09:03;;;;;;;3.22;1.25;;;25.30;40.90;;;;;;5073858;28;20198;-56
2022/11/26 08:11:34;;;;;;;5.15;2.00;;;25.30;40.90;;;;;;5073592;28;20201;-59
2022/11/26 08:14:06;;;;;;;6.07;1.75;;;25.30;41.00;;;;;;5073290;28;20222;-59
2022/11/26 08:16:37;;;;;;;3.13;1.35;;;25.30;41.00;;;;;;5073073;28;20576;-53
2022/11/26 08:19:13;;;;;;;4.50;1.80;;;25.20;41.00;;;;;;5073916;28;20198;-52
2022/11/26 08:21:44;;;;;;;3.97;1.73;;;25.20;41.20;;;;;;5073212;28;20198;-59
2022/11/26 08:24:17;;;;;;;2.72;1.50;;;25.20;41.20;;;;;;5073081;28;20252;-54
2022/11/26 08:26:48;;;;;;;3.55;1.55;;;25.20;41.30;;;;;;5072904;28;20647;-59
2022/11/26 08:29:22;;;;;;;3.40;1.50;;;25.10;41.20;;;;;;5073559;28;20198;-57
2022/11/26 08:31:53;;;;;;;2.08;1.35;;;25.10;41.40;;;;;;5073181;28;20205;-52
2022/11/26 08:34:25;;;;;;;4.28;1.83;;;25.10;41.40;;;;;;5072979;28;20732;-58
2022/11/26 08:36:58;;;;;;;4.18;1.50;;;25.10;41.50;;;;;;5073302;28;20579;-55
2022/11/26 08:39:28;;;;;;;3.35;1.85;;;25.00;41.50;;;;;;5073090;28;20201;-56
2022/11/26 08:41:59;;;;;;;3.58;1.55;;;25.00;41.50;;;;;;5072680;28;20563;-53
2022/11/26 08:44:30;;;;;;;3.25;1.40;;;24.90;41.60;;;;;;5073135;28;20686;-58
2022/11/26 08:47:01;;;;;;;3.70;1.80;;;24.90;41.60;;;;;;5072992;28;20194;-56
2022/11/26 08:49:33;;;;;;;5.50;1.60;;;24.90;41.70;;;;;;5072884;28;20191;-59
2022/11/26 08:52:04;;;;;;;3.58;1.48;;;24.90;41.70;;;;;;5070520;28;20408;-50
2022/11/26 08:54:35;;;;;;;3.33;1.95;;;24.90;41.80;;;;;;5068901;28;20324;-58
2022/11/26 08:57:06;;;;;;;4.05;1.95;;;24.80;41.80;;;;;;5061850;28;20615;-57
2022/11/26 08:59:36;;;;;;;5.00;1.83;;;24.80;41.80;;;;;;5069268;28;20240;-59
2022/11/26 09:02:07;;;;;;;4.32;1.60;;;24.80;41.80;;;;;;5071794;28;20198;-60
2022/11/26 09:04:40;;;;;;;3.60;1.45;;;24.70;41.90;;;;;;5072220;28;20222;-56
2022/11/26 09:07:10;;;;;;;3.78;1.63;;;24.70;41.90;;;;;;5072297;28;20651;-53
2022/11/26 09:09:41;;;;;;;4.45;1.67;;;24.70;41.90;;;;;;5071305;28;20187;-57
2022/11/26 09:12:13;;;;;;;3.88;1.63;;;24.70;42.00;;;;;;5057254;28;20187;-59
2022/11/26 09:14:46;;;;;;;3.03;1.58;;;24.70;42.00;;;;;;5071429;28;20219;-54
2022/11/26 09:17:17;;;;;;;3.13;1.38;;;24.60;42.00;;;;;;5071765;28;20255;-55
2022/11/26 09:19:50;;;;;;;3.38;1.63;;;24.50;42.00;;;;;;5071310;28;20201;-60
2022/11/26 09:22:20;;;;;;;5.20;1.70;;;24.50;42.00;;;;;;5070810;28;20194;-58
2022/11/26 09:24:51;;;;;;;3.83;1.60;;;24.50;42.00;;;;;;5071566;28;20222;-60
2022/11/26 09:27:22;;;;;;;3.33;1.45;;;24.50;42.10;;;;;;5071072;28;20199;-56
2022/11/26 09:29:53;;;;;;;2.60;1.50;;;24.50;42.10;;;;;;5070814;28;20282;-48
2022/11/26 09:32:24;;;;;;;3.20;1.70;;;24.40;42.10;;;;;;5071006;28;20221;-54
2022/11/26 09:34:57;;;;;;;2.92;1.55;;;24.40;42.10;;;;;;5070897;28;20597;-60
2022/11/26 09:37:27;;;;;;;2.05;1.30;;;24.40;42.10;;;;;;5071333;28;20202;-64
2022/11/26 09:39:58;;;;;;;3.10;1.65;;;24.40;42.10;;;;;;5071954;28;20194;-64
2022/11/26 09:42:44;;;;;;;2.60;1.40;;;24.30;42.20;;;;;;5070602;28;20195;-61
2022/11/26 09:45:32;;;;;;;3.33;1.63;;;24.30;42.20;;;;;;5072408;28;20199;-63
2022/11/26 09:48:05;;;;;;;2.65;1.45;;;24.20;42.30;;;;;;5055424;28;20214;-63
2022/11/26 09:50:39;;;;;;;2.67;1.20;;;24.20;42.30;;;;;;5072992;28;20190;-63
2022/11/26 09:53:18;;;;;;;2.72;1.42;;;24.20;42.30;;;;;;5091068;28;20214;-56
2022/11/26 09:55:53;;;;;;;2.33;1.45;;;24.20;42.40;;;;;;5086674;28;20222;-62
2022/11/26 09:58:26;;;;;;;1.98;1.13;;;24.10;42.40;;;;;;5068723;28;20198;-62
2022/11/26 10:00:58;;;;;;;1.98;1.23;;;24.10;42.40;;;;;;5070432;28;20203;-54
2022/11/26 10:03:34;;;;;;;2.63;1.48;;;24.10;42.40;;;;;;5071034;28;20218;-59
2022/11/26 10:06:11;;;;;;;2.30;1.30;;;24.10;42.40;;;;;;5070693;28;20186;-61
2022/11/26 10:09:18;;;;;;;3.05;1.42;;;24.00;42.40;;;;;;5070647;28;20202;-52
2022/11/26 10:11:58;;;;;;;2.40;1.25;;;24.00;42.50;;;;;;5069476;28;20207;-59
2022/11/26 10:14:51;;;;;;;3.10;1.33;;;24.00;42.50;;;;;;5071274;28;20219;-61
2022/11/26 10:17:35;;;;;;;3.67;1.55;;;24.00;42.50;;;;;;5071872;28;20677;-60
2022/11/26 10:20:37;;;;;;;2.70;1.30;;;23.90;42.50;;;;;;5071566;28;20198;-57
2022/11/26 10:23:20;;;;;;;2.25;1.40;;;23.80;42.60;;;;;;5037969;28;20210;-60
2022/11/26 10:25:53;;;;;;;3.55;1.40;;;23.80;42.60;;;;;;5071357;28;20207;-62
2022/11/26 10:28:28;;;;;;;3.45;1.40;;;23.80;42.70;;;;;;5071309;28;20199;-61
2022/11/26 10:31:01;;;;;;;2.92;1.35;;;23.80;42.80;;;;;;5070887;28;20565;-61
2022/11/26 10:33:36;;;;;;;2.63;1.40;;;23.70;42.80;;;;;;5070560;28;20215;-61
2022/11/26 10:36:18;;;;;;;2.15;1.27;;;23.70;42.80;;;;;;5071079;28;20222;-60
2022/11/26 10:38:50;;;;;;;3.45;1.25;;;23.60;42.80;;;;;;5070622;28;20201;-58
2022/11/26 10:41:22;;;;;;;2.70;1.23;;;23.60;42.80;;;;;;5071076;28;20202;-61
2022/11/26 10:43:53;;;;;;;1.90;1.20;;;23.60;42.80;;;;;;5070805;28;20230;-60
2022/11/26 10:46:37;;;;;;;2.35;1.23;;;23.60;42.80;;;;;;5070867;28;20202;-57
2022/11/26 10:49:26;;;;;;;2.17;1.23;;;23.60;42.80;;;;;;5070994;28;20191;-61
2022/11/26 10:51:59;;;;;;;3.10;1.40;;;23.50;42.80;;;;;;5070921;28;20194;-61
2022/11/26 10:54:35;;;;;;;2.63;1.27;;;23.50;42.80;;;;;;5070762;28;20221;-60
2022/11/26 10:57:14;;;;;;;1.85;1.02;;;23.50;42.90;;;;;;5070857;28;20202;-61
2022/11/26 10:59:51;;;;;;;3.95;1.27;;;23.50;42.90;;;;;;5070356;28;20248;-55
2022/11/26 11:02:32;;;;;;;1.60;1.20;;;23.40;43.00;;;;;;5070929;28;20599;-61
2022/11/26 11:05:05;;;;;;;2.30;1.00;;;23.40;43.00;;;;;;5070871;28;20214;-56
2022/11/26 11:07:43;;;;;;;2.10;1.17;;;23.40;43.00;;;;;;5070680;28;20199;-59
2022/11/26 11:10:21;;;;;;;1.83;0.93;;;23.30;43.00;;;;;;5070640;28;20221;-62
2022/11/26 11:13:02;;;;;;;2.13;1.13;;;23.30;43.10;;;;;;5070398;28;20199;-60
2022/11/26 11:15:34;;;;;;;2.20;1.00;;;23.30;43.10;;;;;;5069957;28;20662;-61
2022/11/26 11:18:07;;;;;;;1.83;1.33;;;23.20;43.10;;;;;;5070495;28;20241;-57
2022/11/26 11:20:40;;;;;;;1.70;1.17;;;23.20;43.10;;;;;;5070823;28;20191;-61
2022/11/26 11:23:23;;;;;;;2.63;1.00;;;23.20;43.10;;;;;;5070700;28;20222;-59
2022/11/26 11:26:07;;;;;;;2.60;1.40;;;23.20;43.20;;;;;;5070626;28;20607;-61
2022/11/26 11:28:42;;;;;;;2.40;1.00;;;23.10;43.10;;;;;;5070810;28;20227;-56
2022/11/26 11:31:14;;;;;;;2.25;1.10;;;23.10;43.10;;;;;;5070376;28;20202;-60
2022/11/26 11:33:46;;;;;;;2.63;1.08;;;23.10;43.20;;;;;;5071653;28;20753;-60
2022/11/26 11:36:31;;;;;;;2.53;1.10;;;23.00;43.20;;;;;;5074290;28;20275;-60
2022/11/26 11:39:03;;;;;;;1.80;1.15;;;23.00;43.30;;;;;;5074308;28;20199;-60
2022/11/26 11:41:40;;;;;;;1.83;1.00;;;23.00;43.30;;;;;;5074290;28;20669;-59
2022/11/26 11:44:19;;;;;;;1.92;1.00;;;23.00;43.30;;;;;;5074146;28;20218;-60
2022/11/26 11:47:19;;;;;;;2.17;1.10;;;23.00;43.30;;;;;;5074628;28;20202;-58
2022/11/26 11:50:05;;;;;;;1.65;0.93;;;22.90;43.90;;;;;;5074574;28;20203;-60
2022/11/26 11:52:43;;;;;;;2.30;1.17;;;22.80;43.30;;;;;;5073779;28;20197;-59
2022/11/26 11:55:22;;;;;;;1.73;1.13;;;22.80;43.30;;;;;;5074139;28;20226;-60
2022/11/26 11:58:15;;;;;;;2.22;1.38;;;22.80;43.30;;;;;;5073968;28;20206;-56
2022/11/26 12:00:54;;;;;;;2.45;1.20;;;22.80;43.40;;;;;;5074171;28;20231;-56
2022/11/26 12:04:01;;;;;;;1.50;0.85;;;22.80;43.40;;;;;;5073843;28;20223;-57
2022/11/26 12:06:39;;;;;;;2.10;1.10;;;22.80;43.40;;;;;;5072834;28;20199;-56
2022/11/26 12:09:20;;;;;;;1.83;1.08;;;22.70;43.40;;;;;;5073411;28;20677;-58
2022/11/26 12:11:58;;;;;;;2.10;1.05;;;22.70;43.40;;;;;;5073480;28;20199;-60
2022/11/26 12:14:37;;;;;;;1.33;0.90;;;22.70;43.50;;;;;;5073308;28;20745;-57
2022/11/26 12:17:20;;;;;;;1.73;1.10;;;22.60;43.50;;;;;;5073424;28;20222;-59
2022/11/26 12:19:53;;;;;;;2.55;1.23;;;22.60;43.50;;;;;;5073876;28;20205;-58
2022/11/26 12:22:28;;;;;;;2.20;1.00;;;22.60;43.50;;;;;;5073514;28;20195;-61
2022/11/26 12:25:03;;;;;;;1.23;0.88;;;22.60;43.60;;;;;;5073517;28;20257;-56
2022/11/26 12:27:39;;;;;;;2.38;1.00;;;22.50;43.60;;;;;;5073424;28;20198;-61
2022/11/26 12:30:18;;;;;;;1.08;0.90;;;22.50;43.60;;;;;;5073073;28;20201;-57
2022/11/26 12:32:56;;;;;;;2.50;0.80;;;22.50;43.60;;;;;;5073204;28;20198;-56
2022/11/26 12:35:32;;;;;;;1.98;1.00;;;22.50;43.60;;;;;;5072787;28;20712;-58
2022/11/26 12:38:07;;;;;;;1.48;0.80;;;22.50;43.60;;;;;;5072739;28;20190;-57
2022/11/26 12:40:43;;;;;;;1.58;1.00;;;22.50;43.60;;;;;;5073248;28;20194;-60
2022/11/26 12:43:17;;;;;;;1.48;0.90;;;22.40;43.60;;;;;;5073295;28;20214;-58
2022/11/26 12:45:54;;;;;;;1.55;0.88;;;22.40;43.70;;;;;;5073186;28;20202;-54
2022/11/26 12:48:46;;;;;;;2.25;0.85;;;22.40;43.70;;;;;;5073078;28;20644;-56
2022/11/26 12:51:33;;;;;;;1.98;1.00;;;22.40;43.80;;;;;;5072704;28;20191;-57
2022/11/26 12:54:16;;;;;;;1.90;1.10;;;22.30;43.70;;;;;;5062256;28;20219;-56
2022/11/26 12:56:55;;;;;;;1.65;0.88;;;22.30;43.70;;;;;;5073227;28;20245;-59
2022/11/26 12:59:34;;;;;;;1.52;0.90;;;22.30;43.80;;;;;;5072484;28;20205;-58
2022/11/26 13:02:20;;;;;;;2.17;0.82;;;22.30;43.80;;;;;;5072318;28;20201;-59
2022/11/26 13:04:52;;;;;;;2.13;0.80;;;22.20;43.80;;;;;;5072374;28;20211;-59
2022/11/26 13:07:42;;;;;;;1.77;0.90;;;22.20;43.80;;;;;;5072356;28;20658;-58
2022/11/26 13:10:29;;;;;;;1.52;0.93;;;22.20;43.90;;;;;;5072491;28;20205;-57
2022/11/26 13:13:10;;;;;;;1.25;0.90;;;22.20;43.80;;;;;;5072163;28;20220;-55
2022/11/26 13:15:50;;;;;;;1.60;0.95;;;22.20;43.90;;;;;;5072359;28;20223;-59
2022/11/26 13:18:30;;;;;;;1.50;1.00;;;22.20;43.90;;;;;;5071776;28;20202;-59
2022/11/26 13:21:12;;;;;;;1.38;0.80;;;22.10;43.90;;;;;;5072520;28;20191;-58
2022/11/26 13:23:59;;;;;;;1.20;0.77;;;22.10;43.90;;;;;;5072395;28;20275;-59
2022/11/26 13:26:49;;;;;;;1.42;0.90;;;22.10;43.90;;;;;;5072335;28;20202;-53